sensor_id;sensor_type;location;lat;lon;timestamp;pressure;altitude;pressure_sealevel;temperature;humidity
10658;BME280;5377;43.276;26.930;2023-03-19T00:02:00;99742.81;;;6.68;100.00
10658;BME280;5377;43.276;26.930;2023-03-19T00:04:28;99741.16;;;6.67;100.00
10658;BME280;5377;43.276;26.930;2023-03-19T00:06:55;99744.16;;;6.72;100.00
10658;BME280;5377;43.276;26.930;2023-03-19T00:09:21;99745.50;;;6.68;100.00
10658;BME280;5377;43.276;26.930;2023-03-19T00:11:48;99741.66;;;6.63;100.00
10658;BME280;5377;43.276;26.930;2023-03-19T00:14:15;99735.13;;;6.57;100.00
10658;BME280;5377;43.276;26.930;2023-03-19T00:16:42;99735.50;;;6.62;100.00
10658;BME280;5377;43.276;26.930;2023-03-19T00:19:09;99746.44;;;6.59;100.00
10658;BME280;5377;43.276;26.930;2023-03-19T00:21:37;99738.59;;;6.49;100.00
10658;BME280;5377;43.276;26.930;2023-03-19T00:24:04;99733.13;;;6.51;100.00
10658;BME280;5377;43.276;26.930;2023-03-19T00:26:32;99744.94;;;6.56;100.00
10658;BME280;5377;43.276;26.930;2023-03-19T00:29:00;99751.09;;;6.57;100.00
10658;BME280;5377;43.276;26.930;2023-03-19T00:31:28;99743.59;;;6.52;100.00
10658;BME280;5377;43.276;26.930;2023-03-19T00:33:56;99739.09;;;6.53;100.00
10658;BME280;5377;43.276;26.930;2023-03-19T00:36:23;99732.28;;;6.58;100.00
10658;BME280;5377;43.276;26.930;2023-03-19T00:38:53;99739.00;;;6.71;100.00
10658;BME280;5377;43.276;26.930;2023-03-19T00:41:20;99738.50;;;6.67;100.00
10658;BME280;5377;43.276;26.930;2023-03-19T00:43:51;99743.81;;;6.67;100.00
10658;BME280;5377;43.276;26.930;2023-03-19T00:46:18;99744.25;;;6.54;100.00
10658;BME280;5377;43.276;26.930;2023-03-19T00:48:45;99742.47;;;6.63;100.00
10658;BME280;5377;43.276;26.930;2023-03-19T00:51:12;99742.66;;;6.70;100.00
10658;BME280;5377;43.276;26.930;2023-03-19T00:53:40;99729.97;;;6.55;100.00
10658;BME280;5377;43.276;26.930;2023-03-19T00:56:10;99749.09;;;6.59;100.00
10658;BME280;5377;43.276;26.930;2023-03-19T00:58:37;99736.66;;;6.60;100.00
10658;BME280;5377;43.276;26.930;2023-03-19T01:01:05;99730.63;;;6.49;100.00
10658;BME280;5377;43.276;26.930;2023-03-19T01:03:33;99734.00;;;6.60;100.00
10658;BME280;5377;43.276;26.930;2023-03-19T01:06:00;99727.81;;;6.59;100.00
10658;BME280;5377;43.276;26.930;2023-03-19T01:08:27;99714.66;;;6.49;100.00
10658;BME280;5377;43.276;26.930;2023-03-19T01:10:54;99730.47;;;6.59;100.00
10658;BME280;5377;43.276;26.930;2023-03-19T01:13:22;99714.16;;;6.46;100.00
10658;BME280;5377;43.276;26.930;2023-03-19T01:15:51;99729.94;;;6.47;100.00
10658;BME280;5377;43.276;26.930;2023-03-19T01:18:18;99730.09;;;6.46;100.00
10658;BME280;5377;43.276;26.930;2023-03-19T01:20:45;99728.78;;;6.42;100.00
10658;BME280;5377;43.276;26.930;2023-03-19T01:23:11;99737.41;;;6.36;100.00
10658;BME280;5377;43.276;26.930;2023-03-19T01:25:38;99731.56;;;6.32;100.00
10658;BME280;5377;43.276;26.930;2023-03-19T01:28:05;99735.91;;;6.33;100.00
10658;BME280;5377;43.276;26.930;2023-03-19T01:30:34;99738.91;;;6.38;100.00
10658;BME280;5377;43.276;26.930;2023-03-19T01:33:00;99730.44;;;6.43;100.00
10658;BME280;5377;43.276;26.930;2023-03-19T01:35:27;99729.59;;;6.42;100.00
10658;BME280;5377;43.276;26.930;2023-03-19T01:37:54;99739.41;;;6.42;100.00
10658;BME280;5377;43.276;26.930;2023-03-19T01:40:21;99725.13;;;6.43;100.00
10658;BME280;5377;43.276;26.930;2023-03-19T01:42:52;99724.78;;;6.46;100.00
10658;BME280;5377;43.276;26.930;2023-03-19T01:45:30;99727.25;;;6.39;100.00
10658;BME280;5377;43.276;26.930;2023-03-19T01:47:59;99715.81;;;6.47;100.00
10658;BME280;5377;43.276;26.930;2023-03-19T01:50:30;99717.78;;;6.37;100.00
10658;BME280;5377;43.276;26.930;2023-03-19T01:53:00;99723.47;;;6.50;100.00
10658;BME280;5377;43.276;26.930;2023-03-19T01:55:28;99712.81;;;6.50;100.00
10658;BME280;5377;43.276;26.930;2023-03-19T01:57:55;99711.16;;;6.49;100.00
10658;BME280;5377;43.276;26.930;2023-03-19T02:00:23;99701.97;;;6.35;100.00
10658;BME280;5377;43.276;26.930;2023-03-19T02:02:52;99714.94;;;6.30;100.00
10658;BME280;5377;43.276;26.930;2023-03-19T02:05:21;99724.41;;;6.33;100.00
10658;BME280;5377;43.276;26.930;2023-03-19T02:07:52;99717.44;;;6.32;100.00
10658;BME280;5377;43.276;26.930;2023-03-19T02:10:20;99723.25;;;6.35;100.00
10658;BME280;5377;43.276;26.930;2023-03-19T02:12:48;99719.38;;;6.21;100.00
10658;BME280;5377;43.276;26.930;2023-03-19T02:15:15;99731.91;;;6.29;100.00
10658;BME280;5377;43.276;26.930;2023-03-19T02:17:42;99730.91;;;6.30;100.00
10658;BME280;5377;43.276;26.930;2023-03-19T02:20:15;99738.41;;;6.35;100.00
10658;BME280;5377;43.276;26.930;2023-03-19T02:22:50;99733.22;;;6.33;100.00
10658;BME280;5377;43.276;26.930;2023-03-19T02:25:23;99730.41;;;6.35;100.00
10658;BME280;5377;43.276;26.930;2023-03-19T02:27:52;99739.66;;;6.22;100.00
10658;BME280;5377;43.276;26.930;2023-03-19T02:30:21;99735.38;;;6.30;100.00
10658;BME280;5377;43.276;26.930;2023-03-19T02:32:48;99735.22;;;6.31;100.00
10658;BME280;5377;43.276;26.930;2023-03-19T02:35:15;99743.75;;;6.43;100.00
10658;BME280;5377;43.276;26.930;2023-03-19T02:37:42;99755.41;;;6.50;100.00
10658;BME280;5377;43.276;26.930;2023-03-19T02:40:13;99757.38;;;6.48;100.00
10658;BME280;5377;43.276;26.930;2023-03-19T02:42:42;99749.06;;;6.43;100.00
10658;BME280;5377;43.276;26.930;2023-03-19T02:45:10;99750.88;;;6.42;100.00
10658;BME280;5377;43.276;26.930;2023-03-19T02:47:37;99753.19;;;6.37;100.00
10658;BME280;5377;43.276;26.930;2023-03-19T02:50:06;99753.03;;;6.39;100.00
10658;BME280;5377;43.276;26.930;2023-03-19T02:52:33;99759.34;;;6.38;100.00
10658;BME280;5377;43.276;26.930;2023-03-19T02:55:01;99761.34;;;6.36;100.00
10658;BME280;5377;43.276;26.930;2023-03-19T02:57:28;99761.34;;;6.36;100.00
10658;BME280;5377;43.276;26.930;2023-03-19T02:59:55;99754.84;;;6.30;100.00
10658;BME280;5377;43.276;26.930;2023-03-19T03:02:23;99760.16;;;6.30;100.00
10658;BME280;5377;43.276;26.930;2023-03-19T03:04:50;99759.03;;;6.41;100.00
10658;BME280;5377;43.276;26.930;2023-03-19T03:07:17;99765.69;;;6.45;100.00
10658;BME280;5377;43.276;26.930;2023-03-19T03:09:43;99772.19;;;6.42;100.00
10658;BME280;5377;43.276;26.930;2023-03-19T03:12:10;99768.69;;;6.42;100.00
10658;BME280;5377;43.276;26.930;2023-03-19T03:14:37;99768.81;;;6.32;100.00
10658;BME280;5377;43.276;26.930;2023-03-19T03:17:05;99779.47;;;6.40;100.00
10658;BME280;5377;43.276;26.930;2023-03-19T03:19:34;99777.81;;;6.39;100.00
10658;BME280;5377;43.276;26.930;2023-03-19T03:22:00;99776.97;;;6.39;100.00
10658;BME280;5377;43.276;26.930;2023-03-19T03:24:27;99782.47;;;6.37;100.00
10658;BME280;5377;43.276;26.930;2023-03-19T03:26:54;99783.31;;;6.38;100.00
10658;BME280;5377;43.276;26.930;2023-03-19T03:29:21;99784.66;;;6.42;100.00
10658;BME280;5377;43.276;26.930;2023-03-19T03:31:48;99779.31;;;6.42;100.00
10658;BME280;5377;43.276;26.930;2023-03-19T03:34:16;99781.66;;;6.45;100.00
10658;BME280;5377;43.276;26.930;2023-03-19T03:36:44;99779.66;;;6.47;100.00
10658;BME280;5377;43.276;26.930;2023-03-19T03:39:12;99783.16;;;6.47;100.00
10658;BME280;5377;43.276;26.930;2023-03-19T03:41:39;99785.81;;;6.47;100.00
10658;BME280;5377;43.276;26.930;2023-03-19T03:44:06;99775.63;;;6.35;100.00
10658;BME280;5377;43.276;26.930;2023-03-19T03:46:33;99782.00;;;6.50;100.00
10658;BME280;5377;43.276;26.930;2023-03-19T03:49:00;99774.03;;;6.50;100.00
10658;BME280;5377;43.276;26.930;2023-03-19T03:51:27;99783.66;;;6.43;100.00
10658;BME280;5377;43.276;26.930;2023-03-19T03:53:55;99783.97;;;6.40;100.00
10658;BME280;5377;43.276;26.930;2023-03-19T03:56:22;99782.47;;;6.37;100.00
10658;BME280;5377;43.276;26.930;2023-03-19T03:58:48;99787.59;;;6.31;100.00
10658;BME280;5377;43.276;26.930;2023-03-19T04:01:16;99773.22;;;6.15;100.00
10658;BME280;5377;43.276;26.930;2023-03-19T04:03:43;99794.16;;;6.18;100.00
10658;BME280;5377;43.276;26.930;2023-03-19T04:06:12;99743.84;;;5.91;100.00
10658;BME280;5377;43.276;26.930;2023-03-19T04:08:40;99790.66;;;6.18;100.00
10658;BME280;5377;43.276;26.930;2023-03-19T04:11:08;99791.03;;;6.23;100.00
10658;BME280;5377;43.276;26.930;2023-03-19T04:13:36;99790.66;;;6.18;100.00
10658;BME280;5377;43.276;26.930;2023-03-19T04:16:03;99794.00;;;6.20;100.00
10658;BME280;5377;43.276;26.930;2023-03-19T04:18:30;99795.06;;;6.27;100.00
10658;BME280;5377;43.276;26.930;2023-03-19T04:20:56;99792.03;;;6.22;100.00
10658;BME280;5377;43.276;26.930;2023-03-19T04:23:23;99792.81;;;6.14;100.00
10658;BME280;5377;43.276;26.930;2023-03-19T04:25:50;99790.19;;;6.22;100.00
10658;BME280;5377;43.276;26.930;2023-03-19T04:28:19;99736.28;;;5.86;100.00
10658;BME280;5377;43.276;26.930;2023-03-19T04:30:45;99782.53;;;6.19;100.00
10658;BME280;5377;43.276;26.930;2023-03-19T04:33:12;99775.53;;;6.18;100.00
10658;BME280;5377;43.276;26.930;2023-03-19T04:35:39;99790.66;;;6.18;100.00
10658;BME280;5377;43.276;26.930;2023-03-19T04:38:05;99787.84;;;6.19;100.00
10658;BME280;5377;43.276;26.930;2023-03-19T04:40:33;99793.50;;;6.16;100.00
10658;BME280;5377;43.276;26.930;2023-03-19T04:43:00;99795.84;;;6.19;100.00
10658;BME280;5377;43.276;26.930;2023-03-19T04:45:28;99801.97;;;6.20;100.00
10658;BME280;5377;43.276;26.930;2023-03-19T04:47:55;99804.66;;;6.20;100.00
10658;BME280;5377;43.276;26.930;2023-03-19T04:50:22;99801.81;;;6.21;100.00
10658;BME280;5377;43.276;26.930;2023-03-19T04:52:49;99817.84;;;6.30;100.00
10658;BME280;5377;43.276;26.930;2023-03-19T04:55:16;99811.22;;;6.34;100.00
10658;BME280;5377;43.276;26.930;2023-03-19T04:57:43;99811.56;;;6.39;100.00
10658;BME280;5377;43.276;26.930;2023-03-19T05:00:11;99815.91;;;6.40;100.00
10658;BME280;5377;43.276;26.930;2023-03-19T05:02:40;99809.75;;;6.39;100.00
10658;BME280;5377;43.276;26.930;2023-03-19T05:05:08;99814.22;;;6.39;100.00
10658;BME280;5377;43.276;26.930;2023-03-19T05:07:35;99805.94;;;6.42;100.00
10658;BME280;5377;43.276;26.930;2023-03-19T05:10:02;99813.06;;;6.41;100.00
10658;BME280;5377;43.276;26.930;2023-03-19T05:12:29;99817.09;;;6.45;100.00
10658;BME280;5377;43.276;26.930;2023-03-19T05:14:56;99811.19;;;6.60;100.00
10658;BME280;5377;43.276;26.930;2023-03-19T05:17:23;99817.69;;;6.65;100.00
10658;BME280;5377;43.276;26.930;2023-03-19T05:19:51;99814.38;;;6.71;100.00
10658;BME280;5377;43.276;26.930;2023-03-19T05:22:18;99807.22;;;6.72;100.00
10658;BME280;5377;43.276;26.930;2023-03-19T05:24:45;99805.72;;;6.69;100.00
10658;BME280;5377;43.276;26.930;2023-03-19T05:27:12;99805.38;;;6.72;100.00
10658;BME280;5377;43.276;26.930;2023-03-19T05:29:39;99810.06;;;6.78;100.00
10658;BME280;5377;43.276;26.930;2023-03-19T05:32:07;99812.56;;;6.80;100.00
10658;BME280;5377;43.276;26.930;2023-03-19T05:34:35;99806.75;;;6.84;100.00
10658;BME280;5377;43.276;26.930;2023-03-19T05:37:03;99815.56;;;6.85;100.00
10658;BME280;5377;43.276;26.930;2023-03-19T05:39:30;99815.47;;;6.95;100.00
10658;BME280;5377;43.276;26.930;2023-03-19T05:41:57;99819.63;;;6.97;100.00
10658;BME280;5377;43.276;26.930;2023-03-19T05:44:24;99813.97;;;7.00;100.00
10658;BME280;5377;43.276;26.930;2023-03-19T05:46:51;99816.97;;;6.97;100.00
10658;BME280;5377;43.276;26.930;2023-03-19T05:49:17;99821.47;;;7.05;100.00
10658;BME280;5377;43.276;26.930;2023-03-19T05:51:44;99811.66;;;7.05;100.00
10658;BME280;5377;43.276;26.930;2023-03-19T05:54:12;99812.97;;;7.09;100.00
10658;BME280;5377;43.276;26.930;2023-03-19T05:56:39;99816.31;;;7.11;100.00
10658;BME280;5377;43.276;26.930;2023-03-19T05:59:06;99809.03;;;7.30;100.00
10658;BME280;5377;43.276;26.930;2023-03-19T06:01:33;99809.88;;;7.38;100.00
10658;BME280;5377;43.276;26.930;2023-03-19T06:04:00;99794.72;;;7.39;100.00
10658;BME280;5377;43.276;26.930;2023-03-19T06:06:26;99810.19;;;7.60;100.00
10658;BME280;5377;43.276;26.930;2023-03-19T06:08:53;99804.03;;;7.59;100.00
10658;BME280;5377;43.276;26.930;2023-03-19T06:11:21;99796.34;;;7.56;100.00
10658;BME280;5377;43.276;26.930;2023-03-19T06:13:48;99803.84;;;7.61;100.00
10658;BME280;5377;43.276;26.930;2023-03-19T06:16:15;99803.03;;;7.68;100.00
10658;BME280;5377;43.276;26.930;2023-03-19T06:18:42;99805.53;;;7.54;100.00
10658;BME280;5377;43.276;26.930;2023-03-19T06:21:10;99801.53;;;7.49;100.00
10658;BME280;5377;43.276;26.930;2023-03-19T06:23:37;99807.69;;;7.58;100.00
10658;BME280;5377;43.276;26.930;2023-03-19T06:26:04;99816.53;;;7.67;100.00
10658;BME280;5377;43.276;26.930;2023-03-19T06:28:32;99813.34;;;7.79;100.00
10658;BME280;5377;43.276;26.930;2023-03-19T06:30:59;99765.69;;;7.60;100.00
10658;BME280;5377;43.276;26.930;2023-03-19T06:33:26;99800.66;;;7.98;100.00
10658;BME280;5377;43.276;26.930;2023-03-19T06:35:56;99799.81;;;8.05;100.00
10658;BME280;5377;43.276;26.930;2023-03-19T06:38:23;99792.78;;;8.21;100.00
10658;BME280;5377;43.276;26.930;2023-03-19T06:40:50;99786.41;;;8.30;100.00
10658;BME280;5377;43.276;26.930;2023-03-19T06:43:17;99783.41;;;8.41;100.00
10658;BME280;5377;43.276;26.930;2023-03-19T06:45:45;99778.34;;;8.54;100.00
10658;BME280;5377;43.276;26.930;2023-03-19T06:48:12;99773.97;;;8.61;100.00
10658;BME280;5377;43.276;26.930;2023-03-19T06:50:39;99770.69;;;8.82;100.00
10658;BME280;5377;43.276;26.930;2023-03-19T06:53:06;99771.81;;;8.88;100.00
10658;BME280;5377;43.276;26.930;2023-03-19T06:55:33;99765.47;;;8.89;100.00
10658;BME280;5377;43.276;26.930;2023-03-19T06:57:59;99771.78;;;8.96;100.00
10658;BME280;5377;43.276;26.930;2023-03-19T07:00:26;99759.34;;;9.11;100.00
10658;BME280;5377;43.276;26.930;2023-03-19T07:02:54;99772.03;;;9.32;100.00
10658;BME280;5377;43.276;26.930;2023-03-19T07:05:21;99767.50;;;9.32;100.00
10658;BME280;5377;43.276;26.930;2023-03-19T07:07:48;99764.66;;;9.34;100.00
10658;BME280;5377;43.276;26.930;2023-03-19T07:10:17;99754.69;;;9.28;100.00
10658;BME280;5377;43.276;26.930;2023-03-19T07:12:44;99763.53;;;9.51;100.00
10658;BME280;5377;43.276;26.930;2023-03-19T07:15:11;99763.81;;;9.56;100.00
10658;BME280;5377;43.276;26.930;2023-03-19T07:17:38;99761.13;;;9.56;100.00
10658;BME280;5377;43.276;26.930;2023-03-19T07:20:07;99749.63;;;9.56;100.00
10658;BME280;5377;43.276;26.930;2023-03-19T07:22:34;99759.16;;;9.73;100.00
10658;BME280;5377;43.276;26.930;2023-03-19T07:25:00;99762.66;;;9.74;100.00
10658;BME280;5377;43.276;26.930;2023-03-19T07:27:27;99763.91;;;9.63;100.00
10658;BME280;5377;43.276;26.930;2023-03-19T07:29:54;99757.81;;;9.54;100.00
10658;BME280;5377;43.276;26.930;2023-03-19T07:32:21;99759.91;;;9.44;100.00
10658;BME280;5377;43.276;26.930;2023-03-19T07:34:48;99705.06;;;9.11;100.00
10658;BME280;5377;43.276;26.930;2023-03-19T07:37:17;99761.88;;;9.50;100.00
10658;BME280;5377;43.276;26.930;2023-03-19T07:39:44;99773.50;;;9.57;100.00
10658;BME280;5377;43.276;26.930;2023-03-19T07:42:11;99756.78;;;9.78;100.00
10658;BME280;5377;43.276;26.930;2023-03-19T07:44:38;99752.16;;;9.87;100.00
10658;BME280;5377;43.276;26.930;2023-03-19T07:47:05;99757.72;;;10.15;100.00
10658;BME280;5377;43.276;26.930;2023-03-19T07:49:32;99758.84;;;10.35;100.00
10658;BME280;5377;43.276;26.930;2023-03-19T07:51:58;99747.13;;;10.36;100.00
10658;BME280;5377;43.276;26.930;2023-03-19T07:54:27;99748.03;;;10.58;100.00
10658;BME280;5377;43.276;26.930;2023-03-19T07:56:53;99741.13;;;10.85;100.00
10658;BME280;5377;43.276;26.930;2023-03-19T07:59:20;99742.78;;;11.07;99.53
10658;BME280;5377;43.276;26.930;2023-03-19T08:01:47;99742.94;;;11.20;98.08
10658;BME280;5377;43.276;26.930;2023-03-19T08:04:14;99745.25;;;11.45;95.79
10658;BME280;5377;43.276;26.930;2023-03-19T08:06:40;99741.34;;;11.47;98.24
10658;BME280;5377;43.276;26.930;2023-03-19T08:09:08;99671.59;;;11.47;95.86
10658;BME280;5377;43.276;26.930;2023-03-19T08:11:36;99732.50;;;12.09;93.03
10658;BME280;5377;43.276;26.930;2023-03-19T08:14:02;99728.41;;;12.13;92.08
10658;BME280;5377;43.276;26.930;2023-03-19T08:16:29;99726.06;;;12.38;89.14
10658;BME280;5377;43.276;26.930;2023-03-19T08:18:57;99729.31;;;11.93;88.16
10658;BME280;5377;43.276;26.930;2023-03-19T08:21:24;99731.47;;;12.10;88.75
10658;BME280;5377;43.276;26.930;2023-03-19T08:23:51;99734.25;;;12.24;89.68
10658;BME280;5377;43.276;26.930;2023-03-19T08:26:18;99722.91;;;12.28;86.56
10658;BME280;5377;43.276;26.930;2023-03-19T08:28:46;99720.69;;;12.38;85.78
10658;BME280;5377;43.276;26.930;2023-03-19T08:31:13;99723.25;;;12.53;85.54
10658;BME280;5377;43.276;26.930;2023-03-19T08:33:40;99718.59;;;12.34;83.50
10658;BME280;5377;43.276;26.930;2023-03-19T08:36:08;99722.34;;;12.39;84.72
10658;BME280;5377;43.276;26.930;2023-03-19T08:38:35;99722.03;;;12.62;85.15
10658;BME280;5377;43.276;26.930;2023-03-19T08:41:03;99717.03;;;13.40;82.12
10658;BME280;5377;43.276;26.930;2023-03-19T08:43:32;99701.06;;;14.56;74.37
10658;BME280;5377;43.276;26.930;2023-03-19T08:46:00;99703.25;;;15.91;66.06
10658;BME280;5377;43.276;26.930;2023-03-19T08:48:27;99697.06;;;16.58;61.32
10658;BME280;5377;43.276;26.930;2023-03-19T08:50:54;99684.50;;;17.11;60.00
10658;BME280;5377;43.276;26.930;2023-03-19T08:53:21;99685.28;;;18.00;56.54
10658;BME280;5377;43.276;26.930;2023-03-19T08:55:52;99679.28;;;17.98;54.82
10658;BME280;5377;43.276;26.930;2023-03-19T08:58:19;99679.69;;;18.42;54.58
10658;BME280;5377;43.276;26.930;2023-03-19T09:00:46;99679.28;;;19.69;50.14
10658;BME280;5377;43.276;26.930;2023-03-19T09:03:15;99676.59;;;20.08;47.48
10658;BME280;5377;43.276;26.930;2023-03-19T09:05:43;99674.09;;;19.34;47.19
10658;BME280;5377;43.276;26.930;2023-03-19T09:08:10;99675.41;;;19.48;47.53
10658;BME280;5377;43.276;26.930;2023-03-19T09:10:38;99674.56;;;19.14;48.07
10658;BME280;5377;43.276;26.930;2023-03-19T09:13:04;99679.72;;;19.61;47.94
10658;BME280;5377;43.276;26.930;2023-03-19T09:15:31;99673.84;;;20.46;46.57
10658;BME280;5377;43.276;26.930;2023-03-19T09:17:58;99671.97;;;20.47;45.37
10658;BME280;5377;43.276;26.930;2023-03-19T09:20:26;99668.50;;;20.35;44.31
10658;BME280;5377;43.276;26.930;2023-03-19T09:22:53;99669.31;;;19.91;44.93
10658;BME280;5377;43.276;26.930;2023-03-19T09:25:20;99662.16;;;20.73;43.42
10658;BME280;5377;43.276;26.930;2023-03-19T09:27:47;99655.53;;;20.64;43.21
10658;BME280;5377;43.276;26.930;2023-03-19T09:30:14;99650.56;;;21.09;43.11
10658;BME280;5377;43.276;26.930;2023-03-19T09:32:41;99649.50;;;19.96;42.61
10658;BME280;5377;43.276;26.930;2023-03-19T09:35:08;99636.47;;;21.49;41.74
10658;BME280;5377;43.276;26.930;2023-03-19T09:37:37;99628.22;;;21.39;42.19
10658;BME280;5377;43.276;26.930;2023-03-19T09:40:05;99596.84;;;22.26;40.17
10658;BME280;5377;43.276;26.930;2023-03-19T09:42:48;99631.25;;;22.37;39.57
10658;BME280;5377;43.276;26.930;2023-03-19T09:45:19;99621.13;;;22.23;37.70
10658;BME280;5377;43.276;26.930;2023-03-19T09:47:48;99626.03;;;21.84;40.14
10658;BME280;5377;43.276;26.930;2023-03-19T09:50:18;99594.47;;;22.65;38.43
10658;BME280;5377;43.276;26.930;2023-03-19T09:52:49;99610.50;;;22.41;37.71
10658;BME280;5377;43.276;26.930;2023-03-19T09:55:30;99616.53;;;22.54;38.25
10658;BME280;5377;43.276;26.930;2023-03-19T09:57:59;99610.50;;;22.36;39.61
10658;BME280;5377;43.276;26.930;2023-03-19T10:00:29;99606.84;;;22.98;37.82
10658;BME280;5377;43.276;26.930;2023-03-19T10:03:04;99609.03;;;22.96;38.92
10658;BME280;5377;43.276;26.930;2023-03-19T10:05:42;99603.25;;;22.83;37.64
10658;BME280;5377;43.276;26.930;2023-03-19T10:08:27;99603.28;;;22.93;36.96
10658;BME280;5377;43.276;26.930;2023-03-19T10:11:06;99597.69;;;24.00;36.60
10658;BME280;5377;43.276;26.930;2023-03-19T10:13:45;99580.84;;;24.37;34.51
10658;BME280;5377;43.276;26.930;2023-03-19T10:16:20;99577.31;;;23.36;35.10
10658;BME280;5377;43.276;26.930;2023-03-19T10:18:49;99582.19;;;22.58;36.00
10658;BME280;5377;43.276;26.930;2023-03-19T10:21:20;99586.59;;;23.35;36.13
10658;BME280;5377;43.276;26.930;2023-03-19T10:23:53;99580.88;;;22.91;35.82
10658;BME280;5377;43.276;26.930;2023-03-19T10:26:29;99581.38;;;22.72;35.87
10658;BME280;5377;43.276;26.930;2023-03-19T10:29:07;99568.00;;;23.42;35.11
10658;BME280;5377;43.276;26.930;2023-03-19T10:31:42;99523.47;;;22.55;35.73
10658;BME280;5377;43.276;26.930;2023-03-19T10:34:36;99563.66;;;23.06;36.16
10658;BME280;5377;43.276;26.930;2023-03-19T10:37:13;99560.84;;;23.72;34.93
10658;BME280;5377;43.276;26.930;2023-03-19T10:39:43;99546.75;;;24.09;35.25
10658;BME280;5377;43.276;26.930;2023-03-19T10:42:33;99544.38;;;23.87;33.18
10658;BME280;5377;43.276;26.930;2023-03-19T10:45:12;99513.94;;;23.03;35.21
10658;BME280;5377;43.276;26.930;2023-03-19T10:47:44;99543.94;;;24.29;33.16
10658;BME280;5377;43.276;26.930;2023-03-19T10:50:15;99523.25;;;24.86;32.77
10658;BME280;5377;43.276;26.930;2023-03-19T10:52:42;99530.22;;;25.36;33.11
10658;BME280;5377;43.276;26.930;2023-03-19T10:55:15;99511.44;;;25.48;32.50
10658;BME280;5377;43.276;26.930;2023-03-19T10:57:43;99520.34;;;25.59;31.71
10658;BME280;5377;43.276;26.930;2023-03-19T11:00:16;99522.16;;;26.35;35.14
10658;BME280;5377;43.276;26.930;2023-03-19T11:02:47;99503.72;;;25.98;31.05
10658;BME280;5377;43.276;26.930;2023-03-19T11:05:22;99503.09;;;25.83;31.38
10658;BME280;5377;43.276;26.930;2023-03-19T11:07:50;99512.44;;;25.58;31.22
10658;BME280;5377;43.276;26.930;2023-03-19T11:10:23;99498.75;;;26.00;31.35
10658;BME280;5377;43.276;26.930;2023-03-19T11:12:53;99504.28;;;27.08;33.53
10658;BME280;5377;43.276;26.930;2023-03-19T11:15:27;99501.88;;;26.13;30.71
10658;BME280;5377;43.276;26.930;2023-03-19T11:17:59;99486.22;;;26.13;31.22
10658;BME280;5377;43.276;26.930;2023-03-19T11:20:28;99484.63;;;25.88;31.20
10658;BME280;5377;43.276;26.930;2023-03-19T11:22:56;99483.94;;;25.30;31.51
10658;BME280;5377;43.276;26.930;2023-03-19T11:25:30;99490.59;;;25.47;32.06
10658;BME280;5377;43.276;26.930;2023-03-19T11:28:01;99473.84;;;25.25;32.07
10658;BME280;5377;43.276;26.930;2023-03-19T11:30:35;99474.59;;;26.02;31.49
10658;BME280;5377;43.276;26.930;2023-03-19T11:36:11;99479.16;;;25.88;29.96
10658;BME280;5377;43.276;26.930;2023-03-19T11:38:48;99472.00;;;26.81;30.62
10658;BME280;5377;43.276;26.930;2023-03-19T11:41:31;99473.00;;;26.15;30.68
10658;BME280;5377;43.276;26.930;2023-03-19T11:44:04;99470.47;;;26.00;30.42
10658;BME280;5377;43.276;26.930;2023-03-19T11:46:37;99471.81;;;25.84;32.54
10658;BME280;5377;43.276;26.930;2023-03-19T11:49:20;99464.25;;;25.94;29.65
10658;BME280;5377;43.276;26.930;2023-03-19T11:51:52;99463.81;;;26.06;28.67
10658;BME280;5377;43.276;26.930;2023-03-19T11:54:30;99450.13;;;26.57;27.78
10658;BME280;5377;43.276;26.930;2023-03-19T11:57:03;99447.31;;;26.25;28.84
10658;BME280;5377;43.276;26.930;2023-03-19T11:59:43;99458.84;;;26.46;28.68
10658;BME280;5377;43.276;26.930;2023-03-19T12:02:24;99454.56;;;26.39;29.79
10658;BME280;5377;43.276;26.930;2023-03-19T12:05:04;99451.44;;;26.46;29.42
10658;BME280;5377;43.276;26.930;2023-03-19T12:07:42;99453.56;;;26.49;30.30
10658;BME280;5377;43.276;26.930;2023-03-19T12:10:26;99450.03;;;26.62;28.60
10658;BME280;5377;43.276;26.930;2023-03-19T12:13:02;99440.34;;;26.32;28.73
10658;BME280;5377;43.276;26.930;2023-03-19T12:15:38;99448.94;;;26.63;29.13
10658;BME280;5377;43.276;26.930;2023-03-19T12:18:18;99438.59;;;27.07;28.50
10658;BME280;5377;43.276;26.930;2023-03-19T12:20:55;99453.19;;;26.56;28.24
10658;BME280;5377;43.276;26.930;2023-03-19T12:23:35;99447.41;;;25.82;28.98
10658;BME280;5377;43.276;26.930;2023-03-19T12:26:07;99447.19;;;26.35;28.48
10658;BME280;5377;43.276;26.930;2023-03-19T12:28:39;99440.88;;;26.53;29.11
10658;BME280;5377;43.276;26.930;2023-03-19T12:31:29;99435.06;;;26.55;29.44
10658;BME280;5377;43.276;26.930;2023-03-19T12:34:25;99433.47;;;26.35;28.52
10658;BME280;5377;43.276;26.930;2023-03-19T12:37:06;99435.69;;;25.95;30.15
10658;BME280;5377;43.276;26.930;2023-03-19T12:39:36;99422.84;;;25.72;28.99
10658;BME280;5377;43.276;26.930;2023-03-19T12:42:10;99427.91;;;26.02;29.14
10658;BME280;5377;43.276;26.930;2023-03-19T12:44:42;99420.28;;;26.32;29.04
10658;BME280;5377;43.276;26.930;2023-03-19T12:47:14;99414.72;;;26.56;28.39
10658;BME280;5377;43.276;26.930;2023-03-19T12:49:47;99414.66;;;26.23;28.30
10658;BME280;5377;43.276;26.930;2023-03-19T12:52:20;99416.25;;;25.73;29.10
10658;BME280;5377;43.276;26.930;2023-03-19T12:54:55;99412.47;;;26.06;28.78
10658;BME280;5377;43.276;26.930;2023-03-19T12:57:31;99416.31;;;26.76;28.02
10658;BME280;5377;43.276;26.930;2023-03-19T13:00:06;99419.53;;;26.64;28.34
10658;BME280;5377;43.276;26.930;2023-03-19T13:02:40;99409.03;;;25.96;27.74
10658;BME280;5377;43.276;26.930;2023-03-19T13:05:16;99409.41;;;26.27;27.99
10658;BME280;5377;43.276;26.930;2023-03-19T13:07:51;99404.06;;;25.98;29.15
10658;BME280;5377;43.276;26.930;2023-03-19T13:10:21;99402.53;;;25.92;29.25
10658;BME280;5377;43.276;26.930;2023-03-19T13:12:49;99409.72;;;25.88;29.14
10658;BME280;5377;43.276;26.930;2023-03-19T13:15:25;99402.22;;;25.93;29.18